This is the latest recevied weather packets stored in our database for station/object 9M4GEK-3. If no packets are shown the sender has not sent any weather packets the latest 1 day(s).
| Time | Temp. | Humidity | Pressure | Rain* | Wind** | Luminosity | Snow |
|---|---|---|---|---|---|---|---|
| 1777872265 | 26.67° C | 75% | 1010.4 hPa | - | - | - | - |
| 1777871660 | 33.89° C | 51% | 1010 hPa | - | - | - | - |
| 1777871365 | 30° C | 60% | 1010.3 hPa | - | - | - | - |
| 1777870916 | 36.67° C | 45% | 1009.9 hPa | - | - | - | - |
| 1777870464 | 33.89° C | 51% | 1010 hPa | - | - | - | - |
| 1777869583 | 41.67° C | 37% | 1010 hPa | - | - | - | - |
| 1777869564 | 36.67° C | 45% | 1009.9 hPa | - | - | - | - |
| 1777868664 | 41.67° C | 37% | 1010 hPa | - | - | - | - |
| 1777867976 | 43.89° C | 35% | 1010.1 hPa | - | - | - | - |
| 1777867770 | 43.89° C | 35% | 1010.1 hPa | - | - | - | - |
| 1777866865 | 42.78° C | 38% | 1010.3 hPa | - | - | - | - |
| 1777865964 | 43.33° C | 38% | 1010.2 hPa | - | - | - | - |
| 1777865064 | 41.11° C | 42% | 1010.2 hPa | - | - | - | - |
| 1777864163 | 41.67° C | 40% | 1010.3 hPa | - | - | - | - |
| 1777863263 | 41.11° C | 42% | 1010.3 hPa | - | - | - | - |
| 1777862362 | 39.44° C | 46% | 1010.5 hPa | - | - | - | - |
| 1777861463 | 35.56° C | 53% | 1010.6 hPa | - | - | - | - |
| 1777860563 | 35° C | 55% | 1010.8 hPa | - | - | - | - |
| 1777859662 | 35.56° C | 54% | 1010.6 hPa | - | - | - | - |
| 1777858763 | 35.56° C | 55% | 1010.4 hPa | - | - | - | - |
| 1777857863 | 37.78° C | 53% | 1010.4 hPa | - | - | - | - |
| 1777856962 | 36.11° C | 56% | 1010.1 hPa | - | - | - | - |
| 1777856062 | 35.56° C | 59% | 1010 hPa | - | - | - | - |
| 1777855162 | 34.44° C | 62% | 1009.4 hPa | - | - | - | - |
| 1777854261 | 32.22° C | 66% | 1009.4 hPa | - | - | - | - |
* Rain since midnight (hover to see other rain measurements)
** Current wind speed in m/s (hover to see current wind gust speed)